Time;durP1;ratioP1;P1;durP2;ratioP2;P2;SDS_P1;SDS_P2;PMS_P1;PMS_P2;Temp;Humidity;BMP_temperature;BMP_pressure;BME280_temperature;BME280_humidity;BME280_pressure;Samples;Min_cycle;Max_cycle;Signal;HPM_P1;HPM_P2
2022/03/15 00:01:32;;;;;;;2.35;1.13;;;-1.30;99.90;;;;;;4933141;29;20406;-88
2022/03/15 00:04:00;;;;;;;2.17;1.00;;;-1.30;99.90;;;;;;4918417;29;20750;-88
2022/03/15 00:06:27;;;;;;;2.33;1.00;;;-1.30;99.90;;;;;;4918644;29;20406;-88
2022/03/15 00:08:55;;;;;;;2.00;1.20;;;-1.30;99.90;;;;;;4934904;29;20390;-86
2022/03/15 00:11:23;;;;;;;1.92;0.90;;;-1.30;99.90;;;;;;4934796;29;20434;-87
2022/03/15 00:13:50;;;;;;;2.03;0.90;;;-1.30;99.90;;;;;;4918977;29;20394;-88
2022/03/15 00:16:18;;;;;;;2.10;1.02;;;-1.40;99.90;;;;;;4934748;29;20436;-86
2022/03/15 00:18:46;;;;;;;1.90;0.90;;;-1.30;99.90;;;;;;4934753;29;20976;-87
2022/03/15 00:21:14;;;;;;;1.83;1.00;;;-1.40;99.90;;;;;;4935814;29;20414;-87
2022/03/15 00:26:32;;;;;;;1.95;1.00;;;-1.40;99.90;;;;;;5048936;23;20445;-91
2022/03/15 00:29:05;;;;;;;3.00;1.10;;;-1.40;99.90;;;;;;4920121;29;20402;-92
2022/03/15 00:31:33;;;;;;;2.67;1.10;;;-1.50;99.90;;;;;;4950723;29;20896;-92
2022/03/15 00:34:00;;;;;;;3.28;1.30;;;-1.40;99.90;;;;;;4950667;29;20405;-93
2022/03/15 00:36:28;;;;;;;2.05;1.00;;;-1.50;99.90;;;;;;4950467;29;20477;-92
2022/03/15 00:38:55;;;;;;;1.77;0.90;;;-1.50;99.90;;;;;;4950363;29;20863;-91
2022/03/15 00:41:25;;;;;;;2.67;1.10;;;-1.50;99.90;;;;;;4950205;29;20911;-90
2022/03/15 00:43:53;;;;;;;3.05;1.23;;;-1.50;99.90;;;;;;4950561;29;20398;-91
2022/03/15 00:46:22;;;;;;;3.00;1.17;;;-1.60;99.90;;;;;;4940945;29;20442;-91
2022/03/15 00:48:50;;;;;;;3.15;1.20;;;-1.60;99.90;;;;;;4934692;29;20430;-92
2022/03/15 00:51:18;;;;;;;1.80;1.10;;;-1.60;99.90;;;;;;4915449;29;20411;-92
2022/03/15 00:53:45;;;;;;;2.28;1.13;;;-1.60;99.90;;;;;;4899891;29;20420;-90
2022/03/15 00:56:13;;;;;;;2.43;1.20;;;-1.60;99.90;;;;;;4900142;29;20415;-92
2022/03/15 00:58:41;;;;;;;3.07;1.30;;;-1.60;99.90;;;;;;4899927;29;20426;-91
2022/03/15 01:01:09;;;;;;;2.40;1.23;;;-1.60;99.90;;;;;;4899828;29;20495;-91
2022/03/15 01:03:37;;;;;;;3.13;1.40;;;-1.60;99.90;;;;;;4918827;29;20397;-91
2022/03/15 01:06:05;;;;;;;2.17;1.30;;;-1.60;99.90;;;;;;4950298;29;20402;-91
2022/03/15 01:08:32;;;;;;;2.25;1.38;;;-1.60;99.90;;;;;;4950109;29;20406;-92
2022/03/15 01:11:00;;;;;;;2.60;1.50;;;-1.60;99.90;;;;;;4934195;29;20489;-90
2022/03/15 01:13:27;;;;;;;2.75;1.45;;;-1.60;99.90;;;;;;4949880;29;20484;-90
2022/03/15 01:15:56;;;;;;;2.70;1.30;;;-1.60;99.90;;;;;;4949953;29;20955;-90
2022/03/15 01:18:24;;;;;;;2.20;1.27;;;-1.50;99.90;;;;;;4915600;29;20432;-92
2022/03/15 01:20:51;;;;;;;2.40;1.20;;;-1.50;99.90;;;;;;4915396;29;20443;-92
2022/03/15 01:23:19;;;;;;;2.65;1.50;;;-1.40;99.90;;;;;;4915334;29;20470;-91
2022/03/15 01:25:46;;;;;;;2.40;1.20;;;-1.40;99.90;;;;;;4899290;29;20766;-92
2022/03/15 01:28:15;;;;;;;2.40;1.10;;;-1.40;99.90;;;;;;4899726;29;20427;-91
2022/03/15 01:30:43;;;;;;;2.67;1.10;;;-1.40;99.90;;;;;;4915289;29;20395;-91
2022/03/15 01:33:11;;;;;;;2.35;1.27;;;-1.60;99.90;;;;;;4899471;29;20404;-91
2022/03/15 01:35:41;;;;;;;2.35;1.35;;;-1.60;99.90;;;;;;4900170;29;20411;-92
2022/03/15 01:38:09;;;;;;;2.70;1.35;;;-1.60;99.90;;;;;;4899560;29;20442;-91
2022/03/15 01:40:36;;;;;;;3.08;1.30;;;-1.50;99.90;;;;;;4899372;29;20437;-91
2022/03/15 01:43:04;;;;;;;2.20;1.20;;;-1.50;99.90;;;;;;4914870;29;20430;-91
2022/03/15 01:45:38;;;;;;;3.05;1.35;;;-1.60;99.90;;;;;;4899357;29;20419;-91
2022/03/15 01:48:07;;;;;;;2.75;1.40;;;-1.60;99.90;;;;;;4899349;29;20414;-92
2022/03/15 01:50:36;;;;;;;2.55;1.30;;;-1.60;99.90;;;;;;4899345;29;20407;-92
2022/03/15 01:53:06;;;;;;;3.00;1.40;;;-1.60;99.90;;;;;;4915473;29;20410;-93
2022/03/15 01:55:38;;;;;;;2.60;1.35;;;-1.60;99.90;;;;;;4900035;29;20411;-92
2022/03/15 01:58:05;;;;;;;2.45;1.42;;;-1.50;99.90;;;;;;4899580;29;20464;-92
2022/03/15 02:00:33;;;;;;;2.53;1.40;;;-1.60;99.90;;;;;;4899144;29;20400;-91
2022/03/15 02:03:03;;;;;;;3.50;1.67;;;-1.60;99.90;;;;;;4899497;29;20435;-92
2022/03/15 02:05:31;;;;;;;3.73;1.60;;;-1.60;99.90;;;;;;4899330;29;20396;-91
2022/03/15 02:08:12;;;;;;;4.30;1.27;;;-1.70;99.90;;;;;;4899234;29;20783;-91
2022/03/15 02:10:41;;;;;;;2.58;1.30;;;-1.60;99.90;;;;;;4899699;29;20407;-92
2022/03/15 02:13:09;;;;;;;4.20;1.67;;;-1.70;99.90;;;;;;4899133;29;20443;-91
2022/03/15 02:15:38;;;;;;;2.40;1.30;;;-1.70;99.90;;;;;;4914595;29;20486;-92
2022/03/15 02:18:06;;;;;;;2.65;1.40;;;-1.60;99.90;;;;;;4914901;29;20897;-91
2022/03/15 02:20:34;;;;;;;2.55;1.35;;;-1.70;99.90;;;;;;4899134;29;20406;-91
2022/03/15 02:23:01;;;;;;;2.60;1.40;;;-1.70;99.90;;;;;;4899155;29;20423;-91
2022/03/15 02:25:29;;;;;;;3.17;1.60;;;-1.80;99.90;;;;;;4914579;29;20483;-92
2022/03/15 02:27:56;;;;;;;3.10;1.38;;;-1.70;99.90;;;;;;4918023;29;20404;-92
2022/03/15 02:30:24;;;;;;;2.97;1.30;;;-1.70;99.90;;;;;;4918330;29;20404;-91
2022/03/15 02:32:52;;;;;;;3.37;1.70;;;-1.80;99.90;;;;;;4919137;29;20455;-91
2022/03/15 02:35:20;;;;;;;2.10;1.30;;;-1.70;99.90;;;;;;4902315;29;20419;-91
2022/03/15 02:37:47;;;;;;;3.00;1.48;;;-1.90;99.90;;;;;;4902367;29;20486;-90
2022/03/15 02:40:15;;;;;;;2.45;1.30;;;-1.80;99.90;;;;;;4933586;29;20407;-91
2022/03/15 02:42:43;;;;;;;2.67;1.47;;;-1.80;99.90;;;;;;4902364;29;20408;-91
2022/03/15 02:45:11;;;;;;;3.05;1.40;;;-1.80;99.90;;;;;;4902219;29;20464;-91
2022/03/15 02:47:42;;;;;;;2.28;1.20;;;-1.80;99.90;;;;;;4902103;29;20441;-90
2022/03/15 02:50:10;;;;;;;2.60;1.30;;;-1.90;99.90;;;;;;4917702;29;20522;-91
2022/03/15 02:52:38;;;;;;;2.88;1.40;;;-1.90;99.90;;;;;;4933421;29;20455;-92
2022/03/15 02:55:06;;;;;;;2.60;1.30;;;-1.90;99.90;;;;;;4933403;29;20459;-90
2022/03/15 02:57:36;;;;;;;3.03;1.30;;;-2.00;99.90;;;;;;4917243;29;20486;-90
2022/03/15 03:00:05;;;;;;;2.55;1.30;;;-2.00;99.90;;;;;;4901950;29;20455;-90
2022/03/15 03:02:33;;;;;;;2.17;1.30;;;-1.90;99.90;;;;;;4915319;29;20494;-90
2022/03/15 03:05:01;;;;;;;1.95;1.10;;;-2.00;99.90;;;;;;4936264;29;20541;-90
2022/03/15 03:07:28;;;;;;;3.15;1.23;;;-2.00;99.90;;;;;;4920431;29;20414;-90
2022/03/15 03:09:56;;;;;;;2.65;1.20;;;-2.20;99.90;;;;;;4937344;29;20429;-90
2022/03/15 03:12:24;;;;;;;2.72;1.30;;;-2.20;99.90;;;;;;4936050;29;20401;-90
2022/03/15 03:14:54;;;;;;;3.22;1.27;;;-2.20;99.90;;;;;;4920708;29;20513;-90
2022/03/15 03:17:24;;;;;;;3.22;1.40;;;-2.30;99.90;;;;;;4936034;29;20768;-90
2022/03/15 03:19:51;;;;;;;3.13;1.50;;;-2.20;99.90;;;;;;4937019;29;20393;-90
2022/03/15 03:22:19;;;;;;;2.53;1.20;;;-2.20;99.90;;;;;;4920148;29;20406;-90
2022/03/15 03:24:47;;;;;;;2.22;1.30;;;-2.20;99.90;;;;;;4919949;29;20892;-90
2022/03/15 03:27:15;;;;;;;2.45;1.20;;;-2.20;99.90;;;;;;4920248;29;20429;-90
2022/03/15 03:29:42;;;;;;;2.73;1.30;;;-2.20;99.90;;;;;;4919911;29;20805;-91
2022/03/15 03:32:10;;;;;;;2.80;1.20;;;-2.20;99.90;;;;;;4920061;29;21000;-90
2022/03/15 03:34:37;;;;;;;3.00;1.30;;;-2.30;99.90;;;;;;4935877;29;20900;-90
2022/03/15 03:37:05;;;;;;;2.22;1.20;;;-2.30;99.90;;;;;;4920022;29;20429;-92
2022/03/15 03:39:33;;;;;;;2.57;1.30;;;-2.30;99.90;;;;;;4935713;29;20448;-91
2022/03/15 03:42:01;;;;;;;2.10;1.20;;;-2.30;99.90;;;;;;4919924;29;20441;-92
2022/03/15 03:44:29;;;;;;;2.38;1.20;;;-2.30;99.90;;;;;;4919755;29;20402;-90
2022/03/15 03:46:56;;;;;;;3.15;1.35;;;-2.40;99.90;;;;;;4919858;29;20398;-90
2022/03/15 03:49:24;;;;;;;3.25;1.30;;;-2.40;99.90;;;;;;4935512;29;20398;-91
2022/03/15 03:51:52;;;;;;;2.50;1.13;;;-2.40;99.90;;;;;;4935555;29;20409;-90
2022/03/15 03:54:20;;;;;;;3.60;1.40;;;-2.40;99.90;;;;;;4919542;29;20413;-91
2022/03/15 03:56:47;;;;;;;3.30;1.15;;;-2.40;99.90;;;;;;4919650;29;20438;-92
2022/03/15 03:59:15;;;;;;;2.72;1.15;;;-2.40;99.90;;;;;;4919499;29;20406;-91
2022/03/15 04:01:43;;;;;;;2.53;1.20;;;-2.40;99.90;;;;;;4915903;29;20423;-90
2022/03/15 04:04:11;;;;;;;1.92;1.00;;;-2.40;99.90;;;;;;4901184;29;20426;-91
2022/03/15 04:06:40;;;;;;;2.70;1.30;;;-2.40;99.90;;;;;;4916266;29;20965;-90
2022/03/15 04:09:11;;;;;;;2.10;1.20;;;-2.40;99.90;;;;;;4916329;29;20392;-92
2022/03/15 04:11:40;;;;;;;2.40;1.10;;;-2.40;99.90;;;;;;4900431;29;20403;-91
2022/03/15 04:14:10;;;;;;;3.60;1.53;;;-2.40;99.90;;;;;;4915957;29;20490;-91
2022/03/15 04:16:40;;;;;;;2.42;1.23;;;-2.40;99.90;;;;;;4900332;29;20413;-91
2022/03/15 04:19:11;;;;;;;2.00;1.10;;;-2.40;99.90;;;;;;4931920;29;20505;-92
2022/03/15 04:21:39;;;;;;;2.72;1.33;;;-2.40;99.90;;;;;;4900284;29;20703;-90
2022/03/15 04:24:07;;;;;;;3.08;1.40;;;-2.50;99.90;;;;;;4900400;29;20411;-90
2022/03/15 04:26:34;;;;;;;2.70;1.42;;;-2.50;99.90;;;;;;4900242;29;20410;-91
2022/03/15 04:29:02;;;;;;;2.97;1.30;;;-2.50;99.90;;;;;;4915901;29;20503;-91
2022/03/15 04:31:29;;;;;;;3.13;1.20;;;-2.50;99.90;;;;;;4900115;29;20403;-90
2022/03/15 04:33:57;;;;;;;2.23;1.20;;;-2.50;99.90;;;;;;4915729;29;20414;-91
2022/03/15 04:36:24;;;;;;;2.75;1.35;;;-2.50;99.90;;;;;;4915438;29;20490;-91
2022/03/15 04:38:51;;;;;;;3.67;1.45;;;-2.60;99.90;;;;;;4899929;29;20404;-90
2022/03/15 04:41:19;;;;;;;2.78;1.40;;;-2.60;99.90;;;;;;4915670;29;20403;-91
2022/03/15 04:43:46;;;;;;;2.40;1.33;;;-2.60;99.90;;;;;;4900084;29;20404;-91
2022/03/15 04:46:14;;;;;;;2.28;1.20;;;-2.50;99.90;;;;;;4899819;29;20490;-90
2022/03/15 04:48:42;;;;;;;2.67;1.38;;;-2.50;99.90;;;;;;4930701;29;20418;-91
2022/03/15 04:51:11;;;;;;;2.90;1.40;;;-2.60;99.90;;;;;;4902194;29;20840;-91
2022/03/15 04:53:44;;;;;;;3.00;1.48;;;-2.60;99.90;;;;;;4920677;29;20422;-90
2022/03/15 04:56:12;;;;;;;2.40;1.30;;;-2.60;99.90;;;;;;4919023;29;21060;-91
2022/03/15 04:58:39;;;;;;;2.42;1.30;;;-2.60;99.90;;;;;;4934690;29;20410;-90
2022/03/15 05:01:07;;;;;;;3.17;1.30;;;-2.60;99.90;;;;;;4915775;29;20399;-91
2022/03/15 05:03:36;;;;;;;3.05;1.58;;;-2.60;99.90;;;;;;4899810;29;20502;-91
2022/03/15 05:06:03;;;;;;;3.30;1.40;;;-2.60;99.90;;;;;;4931030;29;20495;-90
2022/03/15 05:08:31;;;;;;;2.95;1.30;;;-2.60;99.90;;;;;;4899501;29;20918;-91
2022/03/15 05:11:08;;;;;;;2.83;1.30;;;-2.60;99.90;;;;;;4899621;29;20501;-91
2022/03/15 05:13:41;;;;;;;2.42;1.30;;;-2.60;99.90;;;;;;4899693;29;20744;-91
2022/03/15 05:16:13;;;;;;;2.53;1.30;;;-2.60;99.90;;;;;;4915693;29;20440;-91
2022/03/15 05:18:41;;;;;;;3.10;1.53;;;-2.70;99.90;;;;;;4899675;29;20502;-92
2022/03/15 05:21:08;;;;;;;3.28;1.42;;;-2.70;99.90;;;;;;4899650;29;20451;-90
2022/03/15 05:23:36;;;;;;;2.40;1.48;;;-2.80;99.90;;;;;;4916765;29;21011;-92
2022/03/15 05:26:04;;;;;;;3.00;1.60;;;-2.70;99.90;;;;;;4918381;29;20422;-91
2022/03/15 05:28:31;;;;;;;2.95;1.42;;;-2.70;99.90;;;;;;4949827;29;20420;-89
2022/03/15 05:31:00;;;;;;;2.40;1.23;;;-2.80;99.90;;;;;;4949858;29;20453;-91
2022/03/15 05:33:30;;;;;;;2.92;1.30;;;-2.80;99.90;;;;;;4931719;29;20443;-90
2022/03/15 05:35:58;;;;;;;3.60;1.40;;;-2.90;99.90;;;;;;4930906;29;20407;-92
2022/03/15 05:38:26;;;;;;;3.78;1.30;;;-2.90;99.90;;;;;;4903232;29;20411;-90
2022/03/15 05:40:54;;;;;;;3.60;1.60;;;-2.90;99.90;;;;;;4924535;29;20394;-92
2022/03/15 05:43:41;;;;;;;3.90;1.75;;;-2.90;99.90;;;;;;4920816;29;20500;-91
2022/03/15 05:46:10;;;;;;;2.97;1.55;;;-2.90;99.90;;;;;;4918172;29;20451;-92
2022/03/15 05:48:37;;;;;;;3.03;1.40;;;-2.80;99.90;;;;;;4933588;29;20437;-92
2022/03/15 05:51:05;;;;;;;3.63;1.40;;;-2.80;99.90;;;;;;4918712;29;20428;-95
2022/03/15 05:53:36;;;;;;;2.63;1.40;;;-2.90;99.90;;;;;;4933895;29;20402;-92
2022/03/15 05:56:04;;;;;;;4.20;1.30;;;-2.90;99.90;;;;;;4933960;29;20497;-90
2022/03/15 05:58:32;;;;;;;2.50;1.40;;;-2.80;99.90;;;;;;4933337;29;20397;-91
2022/03/15 06:00:59;;;;;;;4.00;1.37;;;-2.90;99.90;;;;;;4934816;29;20398;-90
2022/03/15 06:03:27;;;;;;;3.28;1.52;;;-2.80;99.90;;;;;;4935619;29;20421;-90
2022/03/15 06:05:56;;;;;;;2.63;1.50;;;-2.80;99.90;;;;;;4936872;29;20838;-91
2022/03/15 06:08:24;;;;;;;4.38;1.50;;;-2.80;99.90;;;;;;4937344;29;20516;-91
2022/03/15 06:10:51;;;;;;;2.88;1.40;;;-2.80;99.90;;;;;;4937319;29;20398;-90
2022/03/15 06:13:19;;;;;;;3.00;1.50;;;-2.70;99.90;;;;;;4937482;29;20406;-91
2022/03/15 06:15:46;;;;;;;3.00;1.60;;;-2.70;99.90;;;;;;4921638;29;20406;-91
2022/03/15 06:18:14;;;;;;;3.47;1.60;;;-2.70;99.90;;;;;;4937322;29;20421;-91
2022/03/15 06:20:42;;;;;;;4.20;1.48;;;-2.70;99.90;;;;;;4921513;29;20500;-91
2022/03/15 06:23:10;;;;;;;3.10;1.45;;;-2.60;99.90;;;;;;4937056;29;20907;-91
2022/03/15 06:25:37;;;;;;;2.78;1.20;;;-2.60;99.90;;;;;;4937142;29;20768;-92
2022/03/15 06:28:05;;;;;;;3.28;1.38;;;-2.50;99.90;;;;;;4936975;29;20398;-92
2022/03/15 06:30:32;;;;;;;4.33;1.50;;;-2.50;99.90;;;;;;4937047;29;20473;-92
2022/03/15 06:33:00;;;;;;;3.05;1.40;;;-2.40;99.90;;;;;;4921236;29;20402;-92
2022/03/15 06:35:29;;;;;;;3.38;1.30;;;-2.40;99.90;;;;;;4936828;29;20410;-91
2022/03/15 06:37:57;;;;;;;2.37;1.20;;;-2.30;99.90;;;;;;4936696;29;20440;-92
2022/03/15 06:40:25;;;;;;;2.80;1.20;;;-2.30;99.90;;;;;;4921252;29;20477;-91
2022/03/15 06:42:54;;;;;;;3.67;1.38;;;-2.30;99.90;;;;;;4936735;29;20413;-92
2022/03/15 06:45:22;;;;;;;2.25;1.30;;;-2.20;99.90;;;;;;4920949;29;20809;-91
2022/03/15 06:47:51;;;;;;;3.15;1.30;;;-2.10;99.90;;;;;;4936669;29;20868;-91
2022/03/15 06:50:18;;;;;;;3.80;1.47;;;-2.10;99.90;;;;;;4936642;29;20406;-91
2022/03/15 06:52:47;;;;;;;4.43;1.77;;;-2.00;99.90;;;;;;4936827;29;20414;-92
2022/03/15 06:55:14;;;;;;;4.38;1.85;;;-1.80;99.90;;;;;;4920882;29;20425;-91
2022/03/15 06:57:42;;;;;;;4.38;1.83;;;-1.60;99.90;;;;;;4936723;29;20405;-92
2022/03/15 07:00:13;;;;;;;3.15;1.70;;;-1.50;99.90;;;;;;4920793;29;20465;-93
2022/03/15 07:02:41;;;;;;;4.10;2.15;;;-1.50;99.90;;;;;;4920632;29;20418;-91
2022/03/15 07:05:09;;;;;;;5.35;1.90;;;-1.20;99.90;;;;;;4920780;29;20919;-92
2022/03/15 07:07:38;;;;;;;6.70;2.30;;;-1.00;99.90;;;;;;4936334;29;20458;-94
2022/03/15 07:10:07;;;;;;;4.68;1.70;;;-0.90;99.90;;;;;;4920410;29;20888;-92
2022/03/15 07:12:36;;;;;;;4.15;1.90;;;-0.80;99.90;;;;;;4936026;29;20806;-92
2022/03/15 07:15:05;;;;;;;5.47;2.10;;;-0.70;99.90;;;;;;4920903;29;20754;-93
2022/03/15 07:17:33;;;;;;;4.20;1.77;;;-0.60;99.90;;;;;;4936247;29;20401;-92
2022/03/15 07:20:01;;;;;;;4.03;1.67;;;-0.50;99.90;;;;;;4936113;29;20959;-91
2022/03/15 07:22:28;;;;;;;6.55;1.90;;;-0.30;99.90;;;;;;4935983;29;20421;-94
2022/03/15 07:24:56;;;;;;;3.72;1.73;;;-0.40;99.90;;;;;;4935882;29;20410;-92
2022/03/15 07:27:23;;;;;;;3.75;1.80;;;-0.20;99.90;;;;;;4935998;29;20408;-93
2022/03/15 07:29:51;;;;;;;3.50;1.90;;;-0.20;99.90;;;;;;4920405;29;20414;-93
2022/03/15 07:32:18;;;;;;;4.15;1.95;;;-0.10;99.90;;;;;;4920067;29;20406;-93
2022/03/15 07:34:47;;;;;;;5.13;1.90;;;-0.10;99.90;;;;;;4935621;29;20402;-91
2022/03/15 07:37:14;;;;;;;3.22;1.73;;;-0.10;99.90;;;;;;4935693;29;20402;-91
2022/03/15 07:39:42;;;;;;;2.63;1.52;;;0.00;99.90;;;;;;4935772;29;20398;-91
2022/03/15 07:42:10;;;;;;;4.43;1.90;;;0.00;99.90;;;;;;4935569;29;20909;-93
2022/03/15 07:44:40;;;;;;;3.70;2.03;;;0.20;99.90;;;;;;4919976;29;20487;-92
2022/03/15 07:47:13;;;;;;;4.68;2.10;;;0.30;99.90;;;;;;4935833;29;20780;-92
2022/03/15 07:49:42;;;;;;;4.85;2.50;;;0.30;99.90;;;;;;4920001;29;20398;-91
2022/03/15 07:52:10;;;;;;;6.72;2.60;;;0.30;99.90;;;;;;4935633;29;20394;-91
2022/03/15 07:54:38;;;;;;;4.47;2.50;;;0.30;99.90;;;;;;4919671;29;20918;-92
2022/03/15 07:57:07;;;;;;;5.10;2.20;;;0.30;99.90;;;;;;4935453;29;20395;-92
2022/03/15 07:59:35;;;;;;;6.25;2.42;;;0.30;99.90;;;;;;4935517;29;20398;-92
2022/03/15 08:02:03;;;;;;;5.60;2.50;;;0.50;99.90;;;;;;4935531;29;20394;-92
2022/03/15 08:04:31;;;;;;;5.68;2.50;;;0.50;99.90;;;;;;4919549;29;20413;-91
2022/03/15 08:06:58;;;;;;;5.27;2.30;;;0.50;99.90;;;;;;4935162;29;20405;-92
2022/03/15 08:09:26;;;;;;;5.25;2.40;;;0.60;99.90;;;;;;4935108;29;20409;-93
2022/03/15 08:11:54;;;;;;;5.25;2.40;;;0.60;99.90;;;;;;4935163;29;20398;-92
2022/03/15 08:14:21;;;;;;;6.88;2.60;;;0.60;99.90;;;;;;4919446;29;20758;-92
2022/03/15 08:16:49;;;;;;;5.10;2.45;;;0.70;99.90;;;;;;4919678;29;20417;-91
2022/03/15 08:19:17;;;;;;;4.97;2.50;;;0.70;99.90;;;;;;4919354;29;20926;-92
2022/03/15 08:21:44;;;;;;;4.38;2.38;;;0.80;99.90;;;;;;4934975;29;20939;-92
2022/03/15 08:24:14;;;;;;;5.43;2.80;;;0.80;99.90;;;;;;4933895;29;20776;-92
2022/03/15 08:26:41;;;;;;;5.75;2.40;;;0.90;99.90;;;;;;4918967;29;20489;-92
2022/03/15 08:29:09;;;;;;;7.35;2.67;;;1.00;99.90;;;;;;4919155;29;20406;-93
2022/03/15 08:31:38;;;;;;;5.85;2.75;;;1.00;99.90;;;;;;4934967;29;20405;-92
2022/03/15 08:34:06;;;;;;;4.70;2.35;;;1.20;99.90;;;;;;4934804;29;20501;-93
2022/03/15 08:36:34;;;;;;;5.97;2.50;;;1.30;98.90;;;;;;4918898;29;20440;-92
2022/03/15 08:39:04;;;;;;;5.83;2.10;;;1.40;99.90;;;;;;4934830;29;20409;-92
2022/03/15 08:41:31;;;;;;;3.90;2.03;;;1.40;99.90;;;;;;4918957;29;20394;-92
2022/03/15 08:43:59;;;;;;;4.47;2.20;;;1.40;99.90;;;;;;4934437;29;20784;-92
2022/03/15 08:46:27;;;;;;;2.90;1.70;;;1.40;99.90;;;;;;4919130;29;20401;-93
2022/03/15 08:48:55;;;;;;;4.07;2.10;;;1.50;99.90;;;;;;4934676;29;20409;-92
2022/03/15 08:51:23;;;;;;;3.35;1.80;;;1.50;99.90;;;;;;4934471;29;20394;-92
2022/03/15 08:53:50;;;;;;;4.45;2.10;;;1.60;99.90;;;;;;4934767;29;20892;-92
2022/03/15 08:56:18;;;;;;;3.67;1.80;;;1.70;99.90;;;;;;4918716;29;20488;-93
2022/03/15 08:58:46;;;;;;;5.57;2.55;;;1.80;99.90;;;;;;4934267;29;20409;-92
2022/03/15 09:01:13;;;;;;;5.22;2.08;;;1.80;99.90;;;;;;4918793;29;20402;-93
2022/03/15 09:03:59;;;;;;;4.43;1.70;;;1.80;99.90;;;;;;4934373;29;20900;-92
2022/03/15 09:06:27;;;;;;;4.55;2.00;;;1.90;99.90;;;;;;4934179;29;20406;-93
2022/03/15 09:08:55;;;;;;;4.25;1.67;;;2.00;99.90;;;;;;4918601;29;20417;-92
2022/03/15 09:11:22;;;;;;;3.55;1.55;;;1.90;99.90;;;;;;4918567;29;20402;-92
2022/03/15 09:13:50;;;;;;;3.42;1.67;;;2.00;99.90;;;;;;4934776;29;20477;-91
2022/03/15 09:16:17;;;;;;;3.80;1.90;;;2.00;99.90;;;;;;4934116;29;20493;-93
2022/03/15 09:18:45;;;;;;;3.58;2.00;;;2.10;99.90;;;;;;4934638;29;20432;-93
2022/03/15 09:21:13;;;;;;;4.53;2.15;;;2.20;99.90;;;;;;4934307;29;20919;-94
2022/03/15 09:23:41;;;;;;;3.67;1.60;;;2.30;99.90;;;;;;4918553;29;20421;-94
2022/03/15 09:26:08;;;;;;;3.90;1.53;;;2.40;99.90;;;;;;4934124;29;20414;-93
2022/03/15 09:28:37;;;;;;;3.33;1.52;;;2.30;99.90;;;;;;4918517;29;20413;-94
2022/03/15 09:31:05;;;;;;;3.78;1.60;;;2.40;99.90;;;;;;4918427;29;20416;-93
2022/03/15 09:33:35;;;;;;;2.83;1.50;;;2.40;99.90;;;;;;4918855;29;20457;-91
2022/03/15 09:36:04;;;;;;;5.03;1.60;;;2.50;99.90;;;;;;4920864;29;20414;-92
2022/03/15 09:38:32;;;;;;;3.30;1.60;;;2.50;99.90;;;;;;4937976;29;20437;-93
2022/03/15 09:41:03;;;;;;;4.18;1.63;;;2.60;99.80;;;;;;4938008;29;20413;-92
2022/03/15 09:43:45;;;;;;;2.70;1.50;;;2.60;99.40;;;;;;4922215;29;20424;-92
2022/03/15 09:46:13;;;;;;;3.57;1.80;;;2.70;99.40;;;;;;4937921;29;20414;-93
2022/03/15 09:49:02;;;;;;;4.13;2.10;;;2.80;99.60;;;;;;4924809;29;20406;-91
2022/03/15 09:51:32;;;;;;;4.80;2.22;;;2.90;97.50;;;;;;4937877;29;20401;-93
2022/03/15 09:54:02;;;;;;;5.55;2.00;;;3.10;97.30;;;;;;4921841;29;20424;-93
2022/03/15 09:56:38;;;;;;;3.00;1.70;;;3.20;96.30;;;;;;4937485;29;20413;-91
2022/03/15 09:59:16;;;;;;;3.92;1.80;;;3.30;95.70;;;;;;4937394;29;20465;-91
2022/03/15 10:01:45;;;;;;;13.05;4.10;;;3.40;98.10;;;;;;4937419;29;20409;-93
2022/03/15 10:04:13;;;;;;;10.75;3.58;;;3.50;97.80;;;;;;4937557;29;20439;-92
2022/03/15 10:06:42;;;;;;;9.27;3.00;;;3.50;97.50;;;;;;4937409;29;20410;-92
2022/03/15 10:09:11;;;;;;;10.45;3.25;;;3.70;96.50;;;;;;4937442;29;20394;-93
2022/03/15 10:11:39;;;;;;;4.28;1.77;;;3.70;97.40;;;;;;4921543;29;20414;-92
2022/03/15 10:14:07;;;;;;;4.93;2.23;;;3.90;95.40;;;;;;4921510;29;20413;-91
2022/03/15 10:16:42;;;;;;;6.40;2.33;;;4.00;97.00;;;;;;4937111;29;20417;-91
2022/03/15 10:19:14;;;;;;;6.55;2.45;;;4.20;97.40;;;;;;4937400;29;20409;-91
2022/03/15 10:21:47;;;;;;;5.95;2.22;;;4.10;97.00;;;;;;4937032;29;20397;-90
2022/03/15 10:24:27;;;;;;;4.35;1.67;;;4.10;98.20;;;;;;4921244;29;20473;-92
2022/03/15 10:26:57;;;;;;;3.38;1.80;;;4.30;96.80;;;;;;4921273;29;20900;-93
2022/03/15 10:29:27;;;;;;;4.43;1.90;;;4.20;98.10;;;;;;4937043;29;20481;-91
2022/03/15 10:31:57;;;;;;;4.05;1.73;;;4.10;99.00;;;;;;4921280;29;20420;-92
2022/03/15 10:34:27;;;;;;;4.97;2.00;;;4.20;98.10;;;;;;4936932;29;20409;-91
2022/03/15 10:36:56;;;;;;;3.83;1.98;;;4.30;97.20;;;;;;4937138;29;20398;-92
2022/03/15 10:39:26;;;;;;;3.05;1.67;;;4.50;97.50;;;;;;4936902;29;20964;-92
2022/03/15 10:42:05;;;;;;;4.50;1.98;;;4.50;98.30;;;;;;4921374;29;20402;-91
2022/03/15 10:44:35;;;;;;;2.85;1.52;;;4.70;96.80;;;;;;4936586;29;20417;-90
2022/03/15 10:47:08;;;;;;;3.55;1.88;;;4.80;96.90;;;;;;4935982;29;20729;-92
2022/03/15 10:49:52;;;;;;;3.20;1.60;;;4.80;97.30;;;;;;4936638;29;20472;-92
2022/03/15 10:52:40;;;;;;;4.03;1.63;;;5.00;96.00;;;;;;4936522;29;20892;-92
2022/03/15 10:55:15;;;;;;;4.35;1.80;;;5.20;95.40;;;;;;4920882;29;20416;-91
2022/03/15 10:57:55;;;;;;;3.92;1.67;;;5.20;96.30;;;;;;4936454;29;20500;-92
2022/03/15 11:00:38;;;;;;;3.72;2.15;;;5.40;96.60;;;;;;4920884;29;20953;-91
2022/03/15 11:03:13;;;;;;;3.17;1.58;;;5.60;96.10;;;;;;4936268;29;20493;-91
2022/03/15 11:05:41;;;;;;;3.23;1.87;;;5.60;95.00;;;;;;4936461;29;20410;-90
2022/03/15 11:08:11;;;;;;;3.80;1.90;;;5.70;96.00;;;;;;4936126;29;20461;-92
2022/03/15 11:10:40;;;;;;;3.60;1.88;;;5.70;95.70;;;;;;4920446;29;20720;-91
2022/03/15 11:13:13;;;;;;;3.83;1.90;;;5.90;95.70;;;;;;4920367;29;20930;-92
2022/03/15 11:15:49;;;;;;;5.53;2.20;;;5.90;96.00;;;;;;4937366;29;20401;-91
2022/03/15 11:18:19;;;;;;;4.68;2.13;;;6.00;96.20;;;;;;4920340;29;20888;-92
2022/03/15 11:20:49;;;;;;;4.40;1.75;;;5.90;97.40;;;;;;4936165;29;20406;-93
2022/03/15 11:23:22;;;;;;;7.03;2.10;;;5.90;97.40;;;;;;4921365;29;20465;-93
2022/03/15 11:26:04;;;;;;;4.20;1.77;;;5.90;97.10;;;;;;4935887;29;20418;-91
2022/03/15 11:28:36;;;;;;;3.58;1.90;;;6.00;96.80;;;;;;4920347;29;20406;-91
2022/03/15 11:31:04;;;;;;;4.47;1.95;;;6.20;92.90;;;;;;4935865;29;20414;-92
2022/03/15 11:33:32;;;;;;;5.03;1.90;;;6.40;95.50;;;;;;4935858;29;20398;-92
2022/03/15 11:36:03;;;;;;;4.10;2.08;;;6.50;96.10;;;;;;4920259;29;20409;-92
2022/03/15 11:38:33;;;;;;;3.85;1.90;;;6.20;97.00;;;;;;4935531;29;20809;-93
2022/03/15 11:41:02;;;;;;;3.38;1.85;;;6.60;93.70;;;;;;4935725;29;20805;-90
2022/03/15 11:44:00;;;;;;;4.65;2.15;;;6.90;94.20;;;;;;4935606;29;20432;-92
2022/03/15 11:47:14;;;;;;;3.58;2.00;;;6.90;95.10;;;;;;4935805;29;20474;-92
2022/03/15 11:49:46;;;;;;;4.28;2.15;;;6.90;92.80;;;;;;4922141;29;20418;-92
2022/03/15 11:52:28;;;;;;;5.30;1.90;;;7.20;90.70;;;;;;4935728;29;20402;-92
2022/03/15 11:55:28;;;;;;;4.23;1.80;;;7.40;92.70;;;;;;4919618;29;20402;-91
2022/03/15 11:58:03;;;;;;;4.07;1.90;;;7.30;92.70;;;;;;4897207;29;20406;-91
2022/03/15 12:00:44;;;;;;;3.33;1.85;;;7.40;92.60;;;;;;4919646;29;20410;-92
2022/03/15 12:03:21;;;;;;;5.03;1.80;;;7.40;92.70;;;;;;4935192;29;20413;-91
2022/03/15 12:05:58;;;;;;;5.25;2.25;;;7.30;93.60;;;;;;4935269;29;20465;-92
2022/03/15 12:08:28;;;;;;;4.68;2.03;;;7.50;92.60;;;;;;4934447;29;20517;-91
2022/03/15 12:11:04;;;;;;;3.85;1.65;;;7.50;93.70;;;;;;4919540;29;20436;-92
2022/03/15 12:13:38;;;;;;;2.92;1.50;;;7.20;94.60;;;;;;4935013;29;20416;-91
2022/03/15 12:16:15;;;;;;;5.03;1.70;;;7.50;93.20;;;;;;4936161;29;20422;-91
2022/03/15 12:18:48;;;;;;;4.32;1.70;;;7.50;93.70;;;;;;4935139;29;20398;-91
2022/03/15 12:21:16;;;;;;;3.67;1.50;;;7.80;91.70;;;;;;4935159;29;20497;-91
2022/03/15 12:23:52;;;;;;;3.07;1.67;;;7.80;92.00;;;;;;4919191;29;20410;-90
2022/03/15 12:26:29;;;;;;;4.32;1.90;;;7.90;92.40;;;;;;4934516;29;20817;-91
2022/03/15 12:29:07;;;;;;;4.78;1.77;;;8.10;90.90;;;;;;4935905;29;20418;-91
2022/03/15 12:31:41;;;;;;;3.72;1.70;;;8.20;90.70;;;;;;4935149;29;20390;-91
2022/03/15 12:34:14;;;;;;;4.10;1.70;;;8.20;91.70;;;;;;4919255;29;20460;-91
2022/03/15 12:37:00;;;;;;;3.63;1.40;;;8.30;90.60;;;;;;4931487;29;20921;-91
2022/03/15 12:39:32;;;;;;;2.33;1.33;;;8.00;91.90;;;;;;4931547;29;20421;-90
2022/03/15 12:42:08;;;;;;;2.75;1.52;;;8.20;90.60;;;;;;4915550;29;20412;-90
2022/03/15 12:44:48;;;;;;;2.83;1.27;;;8.30;89.60;;;;;;4899587;29;20428;-91
2022/03/15 12:47:19;;;;;;;3.80;1.40;;;8.50;88.10;;;;;;4922258;29;20419;-90
2022/03/15 12:50:30;;;;;;;3.30;1.80;;;8.50;90.20;;;;;;4930798;29;20943;-90
2022/03/15 12:53:17;;;;;;;4.22;1.70;;;8.50;91.20;;;;;;4880008;29;20431;-89
2022/03/15 12:55:44;;;;;;;4.25;1.58;;;8.80;87.50;;;;;;4868486;29;20407;-90
2022/03/15 12:58:14;;;;;;;3.20;1.40;;;8.80;90.10;;;;;;4880394;29;20428;-91
2022/03/15 13:00:43;;;;;;;2.65;1.45;;;8.60;91.20;;;;;;4899643;29;20782;-90
2022/03/15 13:03:16;;;;;;;4.47;1.83;;;8.60;87.90;;;;;;4902623;29;20413;-90
2022/03/15 13:05:46;;;;;;;3.33;1.42;;;8.70;89.40;;;;;;4918476;29;20980;-90
2022/03/15 13:08:16;;;;;;;2.72;1.50;;;8.80;90.50;;;;;;4935020;29;20474;-90